sensor_id;sensor_type;location;lat;lon;timestamp;P1;durP1;ratioP1;P2;durP2;ratioP2
3831;SDS011;12460;42.662;23.288;2023-06-22T03:46:30;13.00;;;11.80;;
3831;SDS011;12460;42.662;23.288;2023-06-22T04:01:35;12.80;;;11.60;;
3831;SDS011;12460;42.662;23.288;2023-06-22T04:16:40;13.80;;;12.47;;
3831;SDS011;12460;42.662;23.288;2023-06-22T04:31:45;16.07;;;13.90;;
3831;SDS011;12460;42.662;23.288;2023-06-22T04:46:55;13.20;;;12.00;;
3831;SDS011;12460;42.662;23.288;2023-06-22T05:02:10;16.20;;;13.50;;
3831;SDS011;12460;42.662;23.288;2023-06-22T05:17:17;14.70;;;13.30;;
3831;SDS011;12460;42.662;23.288;2023-06-22T05:32:23;14.73;;;13.23;;
3831;SDS011;12460;42.662;23.288;2023-06-22T05:47:26;13.87;;;12.47;;
3831;SDS011;12460;42.662;23.288;2023-06-22T06:02:32;14.10;;;12.90;;
3831;SDS011;12460;42.662;23.288;2023-06-22T06:17:46;14.63;;;13.33;;
3831;SDS011;12460;42.662;23.288;2023-06-22T06:32:56;14.43;;;13.13;;
3831;SDS011;12460;42.662;23.288;2023-06-22T06:48:00;14.70;;;13.40;;
3831;SDS011;12460;42.662;23.288;2023-06-22T07:03:05;13.63;;;12.33;;
3831;SDS011;12460;42.662;23.288;2023-06-22T07:18:11;13.70;;;12.60;;
3831;SDS011;12460;42.662;23.288;2023-06-22T07:33:15;13.73;;;12.70;;
3831;SDS011;12460;42.662;23.288;2023-06-22T07:48:21;14.03;;;13.03;;
3831;SDS011;12460;42.662;23.288;2023-06-22T08:03:26;12.90;;;11.97;;
3831;SDS011;12460;42.662;23.288;2023-06-22T08:18:30;13.93;;;12.73;;
3831;SDS011;12460;42.662;23.288;2023-06-22T08:33:34;13.80;;;12.70;;
3831;SDS011;12460;42.662;23.288;2023-06-22T08:48:39;14.03;;;12.83;;
3831;SDS011;12460;42.662;23.288;2023-06-22T09:03:44;12.60;;;11.60;;
3831;SDS011;12460;42.662;23.288;2023-06-22T09:18:59;10.40;;;9.70;;
3831;SDS011;12460;42.662;23.288;2023-06-22T09:34:03;10.20;;;9.47;;
3831;SDS011;12460;42.662;23.288;2023-06-22T09:49:08;11.63;;;10.63;;
3831;SDS011;12460;42.662;23.288;2023-06-22T10:04:13;11.30;;;10.23;;
3831;SDS011;12460;42.662;23.288;2023-06-22T10:19:18;11.60;;;10.70;;
3831;SDS011;12460;42.662;23.288;2023-06-22T10:34:22;10.87;;;10.07;;
3831;SDS011;12460;42.662;23.288;2023-06-22T10:49:28;12.53;;;11.63;;
3831;SDS011;12460;42.662;23.288;2023-06-22T11:04:33;12.43;;;11.63;;
3831;SDS011;12460;42.662;23.288;2023-06-22T11:19:37;12.60;;;11.63;;
3831;SDS011;12460;42.662;23.288;2023-06-22T11:34:41;12.90;;;11.90;;
3831;SDS011;12460;42.662;23.288;2023-06-22T11:49:48;13.30;;;12.30;;
3831;SDS011;12460;42.662;23.288;2023-06-22T12:04:53;14.43;;;13.30;;
3831;SDS011;12460;42.662;23.288;2023-06-22T12:20:00;13.80;;;12.60;;
3831;SDS011;12460;42.662;23.288;2023-06-22T12:35:04;13.67;;;12.47;;
3831;SDS011;12460;42.662;23.288;2023-06-22T12:50:17;13.17;;;11.77;;
3831;SDS011;12460;42.662;23.288;2023-06-22T13:05:22;16.00;;;11.33;;
3831;SDS011;12460;42.662;23.288;2023-06-22T13:20:28;13.97;;;12.70;;
3831;SDS011;12460;42.662;23.288;2023-06-22T13:35:33;13.97;;;12.57;;
3831;SDS011;12460;42.662;23.288;2023-06-22T13:50:39;13.17;;;12.00;;
3831;SDS011;12460;42.662;23.288;2023-06-22T14:05:44;10.97;;;10.07;;
3831;SDS011;12460;42.662;23.288;2023-06-22T14:20:49;11.10;;;9.90;;
3831;SDS011;12460;42.662;23.288;2023-06-22T14:35:53;12.23;;;11.00;;
3831;SDS011;12460;42.662;23.288;2023-06-22T14:50:57;12.30;;;11.10;;
3831;SDS011;12460;42.662;23.288;2023-06-22T15:06:03;12.20;;;10.47;;
3831;SDS011;12460;42.662;23.288;2023-06-22T15:21:08;13.13;;;11.90;;
3831;SDS011;12460;42.662;23.288;2023-06-22T15:36:13;13.27;;;12.17;;
3831;SDS011;12460;42.662;23.288;2023-06-22T15:51:18;12.40;;;11.30;;
3831;SDS011;12460;42.662;23.288;2023-06-22T16:06:23;14.17;;;12.77;;
3831;SDS011;12460;42.662;23.288;2023-06-22T19:12:46;21.83;;;18.10;;
3831;SDS011;12460;42.662;23.288;2023-06-22T19:27:52;18.00;;;14.87;;
3831;SDS011;12460;42.662;23.288;2023-06-22T19:42:58;18.20;;;15.90;;
3831;SDS011;12460;42.662;23.288;2023-06-22T19:58:03;15.57;;;13.87;;
3831;SDS011;12460;42.662;23.288;2023-06-22T20:13:15;17.00;;;15.30;;
3831;SDS011;12460;42.662;23.288;2023-06-22T20:28:24;18.17;;;15.60;;
3831;SDS011;12460;42.662;23.288;2023-06-22T20:43:30;19.50;;;17.60;;
3831;SDS011;12460;42.662;23.288;2023-06-22T20:58:35;14.77;;;13.30;;
3831;SDS011;12460;42.662;23.288;2023-06-22T21:13:40;14.80;;;13.20;;
3831;SDS011;12460;42.662;23.288;2023-06-22T21:28:45;14.60;;;13.20;;
3831;SDS011;12460;42.662;23.288;2023-06-22T21:43:50;14.30;;;12.80;;
3831;SDS011;12460;42.662;23.288;2023-06-22T21:58:55;13.80;;;12.50;;
3831;SDS011;12460;42.662;23.288;2023-06-22T22:14:01;15.33;;;13.83;;
3831;SDS011;12460;42.662;23.288;2023-06-22T22:29:06;15.90;;;14.27;;
3831;SDS011;12460;42.662;23.288;2023-06-22T22:44:11;14.67;;;13.17;;
3831;SDS011;12460;42.662;23.288;2023-06-22T22:59:16;13.90;;;11.83;;
3831;SDS011;12460;42.662;23.288;2023-06-22T23:14:21;14.60;;;12.63;;
3831;SDS011;12460;42.662;23.288;2023-06-22T23:29:26;11.80;;;10.60;;
3831;SDS011;12460;42.662;23.288;2023-06-22T23:44:31;14.80;;;10.97;;
3831;SDS011;12460;42.662;23.288;2023-06-22T23:59:36;12.17;;;10.97;;
